sensor_id;sensor_type;location;lat;lon;timestamp;P1;durP1;ratioP1;P2;durP2;ratioP2
18716;SDS011;9487;50.892;6.906;2023-03-23T00:00:57;2.90;;;1.73;;
18716;SDS011;9487;50.892;6.906;2023-03-23T00:03:26;3.20;;;2.17;;
18716;SDS011;9487;50.892;6.906;2023-03-23T00:05:53;3.53;;;2.10;;
18716;SDS011;9487;50.892;6.906;2023-03-23T00:08:25;1.70;;;1.50;;
18716;SDS011;9487;50.892;6.906;2023-03-23T00:10:52;2.37;;;2.10;;
18716;SDS011;9487;50.892;6.906;2023-03-23T00:13:23;2.33;;;1.63;;
18716;SDS011;9487;50.892;6.906;2023-03-23T00:15:51;3.53;;;2.00;;
18716;SDS011;9487;50.892;6.906;2023-03-23T00:18:18;2.33;;;2.00;;
18716;SDS011;9487;50.892;6.906;2023-03-23T00:20:47;1.67;;;1.50;;
18716;SDS011;9487;50.892;6.906;2023-03-23T00:23:16;4.30;;;1.70;;
18716;SDS011;9487;50.892;6.906;2023-03-23T00:25:47;1.97;;;1.70;;
18716;SDS011;9487;50.892;6.906;2023-03-23T00:28:14;2.70;;;1.90;;
18716;SDS011;9487;50.892;6.906;2023-03-23T00:30:42;2.20;;;1.80;;
18716;SDS011;9487;50.892;6.906;2023-03-23T00:33:10;3.23;;;1.63;;
18716;SDS011;9487;50.892;6.906;2023-03-23T00:35:38;2.27;;;1.60;;
18716;SDS011;9487;50.892;6.906;2023-03-23T00:38:06;2.93;;;1.90;;
18716;SDS011;9487;50.892;6.906;2023-03-23T00:40:33;2.43;;;1.60;;
18716;SDS011;9487;50.892;6.906;2023-03-23T00:43:03;1.97;;;1.80;;
18716;SDS011;9487;50.892;6.906;2023-03-23T00:45:30;2.93;;;1.70;;
18716;SDS011;9487;50.892;6.906;2023-03-23T00:47:59;2.77;;;1.80;;
18716;SDS011;9487;50.892;6.906;2023-03-23T00:50:27;2.10;;;1.90;;
18716;SDS011;9487;50.892;6.906;2023-03-23T00:52:54;1.80;;;1.70;;
18716;SDS011;9487;50.892;6.906;2023-03-23T00:55:22;2.13;;;1.70;;
18716;SDS011;9487;50.892;6.906;2023-03-23T00:57:49;2.70;;;2.10;;
18716;SDS011;9487;50.892;6.906;2023-03-23T01:00:18;2.17;;;1.67;;
18716;SDS011;9487;50.892;6.906;2023-03-23T01:02:45;2.10;;;1.90;;
18716;SDS011;9487;50.892;6.906;2023-03-23T01:05:12;1.77;;;1.67;;
18716;SDS011;9487;50.892;6.906;2023-03-23T01:07:40;2.47;;;1.83;;
18716;SDS011;9487;50.892;6.906;2023-03-23T01:10:09;2.00;;;1.90;;
18716;SDS011;9487;50.892;6.906;2023-03-23T01:12:41;2.00;;;1.80;;
18716;SDS011;9487;50.892;6.906;2023-03-23T01:15:08;3.77;;;2.07;;
18716;SDS011;9487;50.892;6.906;2023-03-23T01:17:40;1.73;;;1.60;;
18716;SDS011;9487;50.892;6.906;2023-03-23T01:20:08;1.63;;;1.53;;
18716;SDS011;9487;50.892;6.906;2023-03-23T01:22:36;2.73;;;1.70;;
18716;SDS011;9487;50.892;6.906;2023-03-23T01:25:03;3.20;;;1.80;;
18716;SDS011;9487;50.892;6.906;2023-03-23T01:27:30;1.50;;;1.40;;
18716;SDS011;9487;50.892;6.906;2023-03-23T01:29:57;2.57;;;1.80;;
18716;SDS011;9487;50.892;6.906;2023-03-23T01:32:24;2.23;;;1.77;;
18716;SDS011;9487;50.892;6.906;2023-03-23T01:34:52;2.20;;;1.80;;
18716;SDS011;9487;50.892;6.906;2023-03-23T01:37:19;3.90;;;2.03;;
18716;SDS011;9487;50.892;6.906;2023-03-23T01:39:50;2.43;;;1.90;;
18716;SDS011;9487;50.892;6.906;2023-03-23T01:42:18;2.10;;;1.80;;
18716;SDS011;9487;50.892;6.906;2023-03-23T01:47:51;2.90;;;1.97;;
18716;SDS011;9487;50.892;6.906;2023-03-23T01:50:33;2.50;;;1.93;;
18716;SDS011;9487;50.892;6.906;2023-03-23T01:53:04;2.73;;;2.00;;
18716;SDS011;9487;50.892;6.906;2023-03-23T01:55:33;2.20;;;1.97;;
18716;SDS011;9487;50.892;6.906;2023-03-23T01:58:03;2.93;;;2.17;;
18716;SDS011;9487;50.892;6.906;2023-03-23T02:00:31;2.47;;;2.27;;
18716;SDS011;9487;50.892;6.906;2023-03-23T02:02:59;2.40;;;2.00;;
18716;SDS011;9487;50.892;6.906;2023-03-23T02:05:28;2.57;;;1.90;;
18716;SDS011;9487;50.892;6.906;2023-03-23T02:08:03;2.17;;;1.90;;
18716;SDS011;9487;50.892;6.906;2023-03-23T02:10:33;2.30;;;2.10;;
18716;SDS011;9487;50.892;6.906;2023-03-23T02:13:02;3.03;;;2.10;;
18716;SDS011;9487;50.892;6.906;2023-03-23T02:15:33;3.10;;;2.37;;
18716;SDS011;9487;50.892;6.906;2023-03-23T02:18:11;2.40;;;2.20;;
18716;SDS011;9487;50.892;6.906;2023-03-23T02:20:49;2.63;;;2.33;;
18716;SDS011;9487;50.892;6.906;2023-03-23T02:26:50;2.10;;;1.90;;
18716;SDS011;9487;50.892;6.906;2023-03-23T02:32:25;3.60;;;2.57;;
18716;SDS011;9487;50.892;6.906;2023-03-23T02:35:07;3.87;;;2.67;;
18716;SDS011;9487;50.892;6.906;2023-03-23T02:37:38;3.90;;;2.40;;
18716;SDS011;9487;50.892;6.906;2023-03-23T02:40:12;3.30;;;2.53;;
18716;SDS011;9487;50.892;6.906;2023-03-23T02:42:43;2.50;;;2.30;;
18716;SDS011;9487;50.892;6.906;2023-03-23T02:45:15;3.17;;;2.17;;
18716;SDS011;9487;50.892;6.906;2023-03-23T02:47:43;2.40;;;2.10;;
18716;SDS011;9487;50.892;6.906;2023-03-23T02:50:14;2.23;;;1.90;;
18716;SDS011;9487;50.892;6.906;2023-03-23T02:52:44;2.23;;;1.93;;
18716;SDS011;9487;50.892;6.906;2023-03-23T02:55:12;2.23;;;2.03;;
18716;SDS011;9487;50.892;6.906;2023-03-23T02:57:41;2.37;;;2.07;;
18716;SDS011;9487;50.892;6.906;2023-03-23T03:00:10;2.13;;;1.80;;
18716;SDS011;9487;50.892;6.906;2023-03-23T03:02:41;2.40;;;1.53;;
18716;SDS011;9487;50.892;6.906;2023-03-23T03:05:12;2.70;;;1.83;;
18716;SDS011;9487;50.892;6.906;2023-03-23T03:07:53;2.17;;;1.67;;
18716;SDS011;9487;50.892;6.906;2023-03-23T03:10:32;2.90;;;1.70;;
18716;SDS011;9487;50.892;6.906;2023-03-23T03:13:04;1.80;;;1.40;;
18716;SDS011;9487;50.892;6.906;2023-03-23T03:15:39;1.93;;;1.40;;
18716;SDS011;9487;50.892;6.906;2023-03-23T03:18:10;1.70;;;1.60;;
18716;SDS011;9487;50.892;6.906;2023-03-23T03:20:43;2.63;;;1.70;;
18716;SDS011;9487;50.892;6.906;2023-03-23T03:23:13;2.37;;;1.60;;
18716;SDS011;9487;50.892;6.906;2023-03-23T03:25:42;1.80;;;1.70;;
18716;SDS011;9487;50.892;6.906;2023-03-23T03:28:12;1.60;;;1.50;;
18716;SDS011;9487;50.892;6.906;2023-03-23T03:30:41;1.80;;;1.40;;
18716;SDS011;9487;50.892;6.906;2023-03-23T03:33:10;1.33;;;1.23;;
18716;SDS011;9487;50.892;6.906;2023-03-23T03:35:37;2.20;;;1.20;;
18716;SDS011;9487;50.892;6.906;2023-03-23T03:38:09;1.70;;;1.40;;
18716;SDS011;9487;50.892;6.906;2023-03-23T03:40:37;1.30;;;1.20;;
18716;SDS011;9487;50.892;6.906;2023-03-23T03:43:04;1.40;;;1.30;;
18716;SDS011;9487;50.892;6.906;2023-03-23T03:45:33;1.90;;;1.53;;
18716;SDS011;9487;50.892;6.906;2023-03-23T03:48:00;2.20;;;1.40;;
18716;SDS011;9487;50.892;6.906;2023-03-23T03:50:27;1.97;;;1.40;;
18716;SDS011;9487;50.892;6.906;2023-03-23T03:52:54;2.43;;;1.40;;
18716;SDS011;9487;50.892;6.906;2023-03-23T03:55:22;1.57;;;1.47;;
18716;SDS011;9487;50.892;6.906;2023-03-23T03:57:49;1.70;;;1.27;;
18716;SDS011;9487;50.892;6.906;2023-03-23T04:00:16;2.27;;;1.63;;
18716;SDS011;9487;50.892;6.906;2023-03-23T04:02:44;3.37;;;1.80;;
18716;SDS011;9487;50.892;6.906;2023-03-23T04:05:16;3.10;;;1.60;;
18716;SDS011;9487;50.892;6.906;2023-03-23T04:07:45;2.93;;;2.00;;
18716;SDS011;9487;50.892;6.906;2023-03-23T04:10:14;2.50;;;1.67;;
18716;SDS011;9487;50.892;6.906;2023-03-23T04:12:42;2.83;;;2.00;;
18716;SDS011;9487;50.892;6.906;2023-03-23T04:15:09;2.23;;;2.03;;
18716;SDS011;9487;50.892;6.906;2023-03-23T04:17:36;2.43;;;1.93;;
18716;SDS011;9487;50.892;6.906;2023-03-23T04:20:06;1.70;;;1.60;;
18716;SDS011;9487;50.892;6.906;2023-03-23T04:22:40;2.60;;;1.60;;
18716;SDS011;9487;50.892;6.906;2023-03-23T04:25:08;2.13;;;1.50;;
18716;SDS011;9487;50.892;6.906;2023-03-23T04:27:37;2.33;;;1.70;;
18716;SDS011;9487;50.892;6.906;2023-03-23T04:30:06;2.13;;;1.60;;
18716;SDS011;9487;50.892;6.906;2023-03-23T04:32:33;2.00;;;1.60;;
18716;SDS011;9487;50.892;6.906;2023-03-23T04:35:00;2.20;;;1.90;;
18716;SDS011;9487;50.892;6.906;2023-03-23T04:37:28;2.20;;;1.73;;
18716;SDS011;9487;50.892;6.906;2023-03-23T04:39:59;2.47;;;1.90;;
18716;SDS011;9487;50.892;6.906;2023-03-23T04:42:31;2.30;;;1.97;;
18716;SDS011;9487;50.892;6.906;2023-03-23T04:44:58;2.17;;;2.03;;
18716;SDS011;9487;50.892;6.906;2023-03-23T04:47:30;3.33;;;2.00;;
18716;SDS011;9487;50.892;6.906;2023-03-23T04:49:59;2.43;;;2.10;;
18716;SDS011;9487;50.892;6.906;2023-03-23T04:52:26;2.23;;;2.00;;
18716;SDS011;9487;50.892;6.906;2023-03-23T04:54:53;2.20;;;2.00;;
18716;SDS011;9487;50.892;6.906;2023-03-23T04:57:20;1.77;;;1.67;;
18716;SDS011;9487;50.892;6.906;2023-03-23T04:59:47;2.40;;;1.70;;
18716;SDS011;9487;50.892;6.906;2023-03-23T05:02:14;1.83;;;1.73;;
18716;SDS011;9487;50.892;6.906;2023-03-23T05:04:43;2.33;;;1.90;;
18716;SDS011;9487;50.892;6.906;2023-03-23T05:07:10;2.73;;;2.10;;
18716;SDS011;9487;50.892;6.906;2023-03-23T05:09:37;2.67;;;1.97;;
18716;SDS011;9487;50.892;6.906;2023-03-23T05:12:04;2.80;;;2.10;;
18716;SDS011;9487;50.892;6.906;2023-03-23T05:14:32;2.63;;;1.83;;
18716;SDS011;9487;50.892;6.906;2023-03-23T05:16:59;2.50;;;2.00;;
18716;SDS011;9487;50.892;6.906;2023-03-23T05:19:26;5.90;;;3.03;;
18716;SDS011;9487;50.892;6.906;2023-03-23T05:21:56;3.50;;;2.70;;
18716;SDS011;9487;50.892;6.906;2023-03-23T05:24:28;2.20;;;2.00;;
18716;SDS011;9487;50.892;6.906;2023-03-23T05:26:56;2.33;;;2.13;;
18716;SDS011;9487;50.892;6.906;2023-03-23T05:29:23;2.90;;;2.60;;
18716;SDS011;9487;50.892;6.906;2023-03-23T05:31:50;5.03;;;3.00;;
18716;SDS011;9487;50.892;6.906;2023-03-23T05:34:17;4.53;;;2.87;;
18716;SDS011;9487;50.892;6.906;2023-03-23T05:36:44;2.80;;;2.20;;
18716;SDS011;9487;50.892;6.906;2023-03-23T05:39:13;3.10;;;2.10;;
18716;SDS011;9487;50.892;6.906;2023-03-23T05:41:41;2.23;;;2.03;;
18716;SDS011;9487;50.892;6.906;2023-03-23T05:44:09;2.43;;;2.07;;
18716;SDS011;9487;50.892;6.906;2023-03-23T05:46:38;3.93;;;2.10;;
18716;SDS011;9487;50.892;6.906;2023-03-23T05:49:04;2.50;;;2.30;;
18716;SDS011;9487;50.892;6.906;2023-03-23T05:51:32;2.73;;;2.40;;
18716;SDS011;9487;50.892;6.906;2023-03-23T05:53:59;2.47;;;2.27;;
18716;SDS011;9487;50.892;6.906;2023-03-23T05:56:28;2.53;;;2.33;;
18716;SDS011;9487;50.892;6.906;2023-03-23T05:58:56;3.00;;;2.60;;
18716;SDS011;9487;50.892;6.906;2023-03-23T06:01:23;2.90;;;2.30;;
18716;SDS011;9487;50.892;6.906;2023-03-23T06:03:49;2.87;;;2.40;;
18716;SDS011;9487;50.892;6.906;2023-03-23T06:06:18;3.67;;;3.20;;
18716;SDS011;9487;50.892;6.906;2023-03-23T06:08:45;4.10;;;2.83;;
18716;SDS011;9487;50.892;6.906;2023-03-23T06:11:13;3.10;;;2.00;;
18716;SDS011;9487;50.892;6.906;2023-03-23T06:13:41;3.47;;;2.40;;
18716;SDS011;9487;50.892;6.906;2023-03-23T06:16:09;4.37;;;2.73;;
18716;SDS011;9487;50.892;6.906;2023-03-23T06:18:36;2.73;;;2.30;;
18716;SDS011;9487;50.892;6.906;2023-03-23T06:21:05;3.33;;;2.40;;
18716;SDS011;9487;50.892;6.906;2023-03-23T06:23:32;2.60;;;2.17;;
18716;SDS011;9487;50.892;6.906;2023-03-23T06:26:00;2.50;;;2.00;;
18716;SDS011;9487;50.892;6.906;2023-03-23T06:28:30;3.97;;;2.30;;
18716;SDS011;9487;50.892;6.906;2023-03-23T06:31:00;5.73;;;2.13;;
18716;SDS011;9487;50.892;6.906;2023-03-23T06:33:27;3.10;;;2.00;;
18716;SDS011;9487;50.892;6.906;2023-03-23T06:35:54;2.67;;;2.23;;
18716;SDS011;9487;50.892;6.906;2023-03-23T06:38:21;3.83;;;2.13;;
18716;SDS011;9487;50.892;6.906;2023-03-23T06:40:47;2.97;;;2.13;;
18716;SDS011;9487;50.892;6.906;2023-03-23T06:43:17;3.10;;;2.10;;
18716;SDS011;9487;50.892;6.906;2023-03-23T06:45:44;4.80;;;1.80;;
18716;SDS011;9487;50.892;6.906;2023-03-23T06:48:12;2.87;;;1.67;;
18716;SDS011;9487;50.892;6.906;2023-03-23T06:50:41;3.67;;;1.83;;
18716;SDS011;9487;50.892;6.906;2023-03-23T06:53:09;3.30;;;2.07;;
18716;SDS011;9487;50.892;6.906;2023-03-23T06:55:36;2.23;;;1.90;;
18716;SDS011;9487;50.892;6.906;2023-03-23T06:58:03;3.40;;;1.80;;
18716;SDS011;9487;50.892;6.906;2023-03-23T07:00:31;2.80;;;1.90;;
18716;SDS011;9487;50.892;6.906;2023-03-23T07:02:58;2.80;;;1.63;;
18716;SDS011;9487;50.892;6.906;2023-03-23T07:05:26;2.77;;;1.83;;
18716;SDS011;9487;50.892;6.906;2023-03-23T07:07:53;2.83;;;2.00;;
18716;SDS011;9487;50.892;6.906;2023-03-23T07:10:20;2.70;;;1.60;;
18716;SDS011;9487;50.892;6.906;2023-03-23T07:12:46;3.63;;;1.50;;
18716;SDS011;9487;50.892;6.906;2023-03-23T07:15:14;3.60;;;1.60;;
18716;SDS011;9487;50.892;6.906;2023-03-23T07:17:41;1.70;;;1.60;;
18716;SDS011;9487;50.892;6.906;2023-03-23T07:20:08;3.23;;;1.73;;
18716;SDS011;9487;50.892;6.906;2023-03-23T07:22:37;2.90;;;1.60;;
18716;SDS011;9487;50.892;6.906;2023-03-23T07:25:04;3.23;;;1.60;;
18716;SDS011;9487;50.892;6.906;2023-03-23T07:27:31;3.20;;;1.70;;
18716;SDS011;9487;50.892;6.906;2023-03-23T07:29:58;1.73;;;1.50;;
18716;SDS011;9487;50.892;6.906;2023-03-23T07:32:25;4.20;;;1.80;;
18716;SDS011;9487;50.892;6.906;2023-03-23T07:34:52;1.73;;;1.63;;
18716;SDS011;9487;50.892;6.906;2023-03-23T07:37:21;2.13;;;1.53;;
18716;SDS011;9487;50.892;6.906;2023-03-23T07:39:49;3.80;;;1.60;;
18716;SDS011;9487;50.892;6.906;2023-03-23T07:42:16;3.17;;;1.80;;
18716;SDS011;9487;50.892;6.906;2023-03-23T07:44:43;2.53;;;2.03;;
18716;SDS011;9487;50.892;6.906;2023-03-23T07:47:11;2.03;;;1.50;;
18716;SDS011;9487;50.892;6.906;2023-03-23T07:49:38;3.37;;;1.70;;
18716;SDS011;9487;50.892;6.906;2023-03-23T07:52:05;3.17;;;1.50;;
18716;SDS011;9487;50.892;6.906;2023-03-23T07:54:31;1.87;;;1.50;;
18716;SDS011;9487;50.892;6.906;2023-03-23T07:57:00;2.40;;;1.67;;
18716;SDS011;9487;50.892;6.906;2023-03-23T07:59:26;4.33;;;3.40;;
18716;SDS011;9487;50.892;6.906;2023-03-23T08:01:53;2.80;;;1.60;;
18716;SDS011;9487;50.892;6.906;2023-03-23T08:04:20;4.47;;;4.07;;
18716;SDS011;9487;50.892;6.906;2023-03-23T08:06:47;2.83;;;1.80;;
18716;SDS011;9487;50.892;6.906;2023-03-23T08:09:14;1.83;;;1.40;;
18716;SDS011;9487;50.892;6.906;2023-03-23T08:11:41;2.30;;;1.40;;
18716;SDS011;9487;50.892;6.906;2023-03-23T08:14:10;4.30;;;1.50;;
18716;SDS011;9487;50.892;6.906;2023-03-23T08:16:37;5.33;;;1.77;;
18716;SDS011;9487;50.892;6.906;2023-03-23T08:19:04;4.93;;;1.70;;
18716;SDS011;9487;50.892;6.906;2023-03-23T08:21:31;2.07;;;1.50;;
18716;SDS011;9487;50.892;6.906;2023-03-23T08:23:58;2.80;;;1.67;;
18716;SDS011;9487;50.892;6.906;2023-03-23T08:26:24;2.90;;;1.77;;
18716;SDS011;9487;50.892;6.906;2023-03-23T08:28:52;2.40;;;1.47;;
18716;SDS011;9487;50.892;6.906;2023-03-23T08:31:20;3.33;;;1.67;;
18716;SDS011;9487;50.892;6.906;2023-03-23T08:33:47;2.33;;;1.60;;
18716;SDS011;9487;50.892;6.906;2023-03-23T08:36:14;2.37;;;1.43;;
18716;SDS011;9487;50.892;6.906;2023-03-23T08:38:41;2.53;;;1.63;;
18716;SDS011;9487;50.892;6.906;2023-03-23T08:41:09;3.23;;;1.93;;
18716;SDS011;9487;50.892;6.906;2023-03-23T08:43:36;3.73;;;1.77;;
18716;SDS011;9487;50.892;6.906;2023-03-23T08:46:05;3.60;;;1.73;;
18716;SDS011;9487;50.892;6.906;2023-03-23T08:48:35;4.80;;;1.73;;
18716;SDS011;9487;50.892;6.906;2023-03-23T08:51:03;3.40;;;1.87;;
18716;SDS011;9487;50.892;6.906;2023-03-23T08:53:31;4.07;;;1.67;;
18716;SDS011;9487;50.892;6.906;2023-03-23T08:56:02;4.93;;;1.97;;
18716;SDS011;9487;50.892;6.906;2023-03-23T08:58:30;4.80;;;2.03;;
18716;SDS011;9487;50.892;6.906;2023-03-23T09:00:57;2.87;;;2.33;;
18716;SDS011;9487;50.892;6.906;2023-03-23T09:03:24;4.03;;;2.10;;
18716;SDS011;9487;50.892;6.906;2023-03-23T09:05:53;3.97;;;1.73;;
18716;SDS011;9487;50.892;6.906;2023-03-23T09:08:20;3.73;;;2.27;;
18716;SDS011;9487;50.892;6.906;2023-03-23T09:10:46;2.50;;;1.63;;
18716;SDS011;9487;50.892;6.906;2023-03-23T09:13:15;4.13;;;1.93;;
18716;SDS011;9487;50.892;6.906;2023-03-23T09:15:41;4.77;;;1.90;;
18716;SDS011;9487;50.892;6.906;2023-03-23T09:18:08;2.77;;;1.50;;
18716;SDS011;9487;50.892;6.906;2023-03-23T09:20:35;2.47;;;1.70;;
18716;SDS011;9487;50.892;6.906;2023-03-23T09:23:04;5.20;;;1.73;;
18716;SDS011;9487;50.892;6.906;2023-03-23T09:25:31;4.50;;;1.70;;
18716;SDS011;9487;50.892;6.906;2023-03-23T09:27:58;5.30;;;1.80;;
18716;SDS011;9487;50.892;6.906;2023-03-23T09:30:26;2.47;;;1.67;;
18716;SDS011;9487;50.892;6.906;2023-03-23T09:32:56;3.80;;;1.50;;
18716;SDS011;9487;50.892;6.906;2023-03-23T09:35:26;5.60;;;2.07;;
18716;SDS011;9487;50.892;6.906;2023-03-23T09:37:53;2.83;;;1.40;;
18716;SDS011;9487;50.892;6.906;2023-03-23T09:40:22;3.93;;;1.60;;
18716;SDS011;9487;50.892;6.906;2023-03-23T09:42:56;3.57;;;1.60;;
18716;SDS011;9487;50.892;6.906;2023-03-23T09:45:33;3.27;;;1.67;;
18716;SDS011;9487;50.892;6.906;2023-03-23T09:48:12;4.83;;;1.70;;
18716;SDS011;9487;50.892;6.906;2023-03-23T09:50:55;5.93;;;1.90;;
18716;SDS011;9487;50.892;6.906;2023-03-23T09:53:27;4.07;;;2.13;;
18716;SDS011;9487;50.892;6.906;2023-03-23T09:56:01;4.23;;;1.70;;
18716;SDS011;9487;50.892;6.906;2023-03-23T09:58:33;3.37;;;1.70;;
18716;SDS011;9487;50.892;6.906;2023-03-23T10:01:06;6.57;;;2.33;;
18716;SDS011;9487;50.892;6.906;2023-03-23T10:03:41;4.70;;;1.53;;
18716;SDS011;9487;50.892;6.906;2023-03-23T10:06:10;3.90;;;1.53;;
18716;SDS011;9487;50.892;6.906;2023-03-23T10:08:39;3.87;;;1.80;;
18716;SDS011;9487;50.892;6.906;2023-03-23T10:11:12;3.33;;;1.27;;
18716;SDS011;9487;50.892;6.906;2023-03-23T10:13:49;4.40;;;2.00;;
18716;SDS011;9487;50.892;6.906;2023-03-23T10:16:28;5.10;;;2.03;;
18716;SDS011;9487;50.892;6.906;2023-03-23T10:19:00;3.63;;;2.33;;
18716;SDS011;9487;50.892;6.906;2023-03-23T10:21:29;2.93;;;1.43;;
18716;SDS011;9487;50.892;6.906;2023-03-23T10:23:58;3.47;;;1.40;;
18716;SDS011;9487;50.892;6.906;2023-03-23T10:26:40;2.17;;;1.13;;
18716;SDS011;9487;50.892;6.906;2023-03-23T10:29:16;2.37;;;1.20;;
18716;SDS011;9487;50.892;6.906;2023-03-23T10:31:47;1.83;;;1.00;;
18716;SDS011;9487;50.892;6.906;2023-03-23T10:34:21;1.87;;;1.30;;
18716;SDS011;9487;50.892;6.906;2023-03-23T10:36:52;2.97;;;1.20;;
18716;SDS011;9487;50.892;6.906;2023-03-23T10:39:26;1.73;;;0.93;;
18716;SDS011;9487;50.892;6.906;2023-03-23T10:41:59;1.70;;;1.10;;
18716;SDS011;9487;50.892;6.906;2023-03-23T10:44:32;2.03;;;1.10;;
18716;SDS011;9487;50.892;6.906;2023-03-23T10:47:00;1.13;;;1.00;;
18716;SDS011;9487;50.892;6.906;2023-03-23T10:49:30;1.20;;;1.00;;
18716;SDS011;9487;50.892;6.906;2023-03-23T10:52:03;1.63;;;0.80;;
18716;SDS011;9487;50.892;6.906;2023-03-23T10:54:36;1.00;;;0.90;;
18716;SDS011;9487;50.892;6.906;2023-03-23T10:57:17;3.00;;;1.10;;
18716;SDS011;9487;50.892;6.906;2023-03-23T10:59:48;2.17;;;1.20;;
18716;SDS011;9487;50.892;6.906;2023-03-23T11:02:17;1.93;;;0.90;;
18716;SDS011;9487;50.892;6.906;2023-03-23T11:04:46;1.37;;;1.03;;
18716;SDS011;9487;50.892;6.906;2023-03-23T11:07:26;2.30;;;1.00;;
18716;SDS011;9487;50.892;6.906;2023-03-23T11:09:56;1.13;;;0.87;;
18716;SDS011;9487;50.892;6.906;2023-03-23T11:12:25;2.30;;;1.20;;
18716;SDS011;9487;50.892;6.906;2023-03-23T11:14:52;1.30;;;0.70;;
18716;SDS011;9487;50.892;6.906;2023-03-23T11:17:36;2.07;;;1.03;;
18716;SDS011;9487;50.892;6.906;2023-03-23T11:20:09;2.47;;;1.07;;
18716;SDS011;9487;50.892;6.906;2023-03-23T11:22:37;1.93;;;1.00;;
18716;SDS011;9487;50.892;6.906;2023-03-23T11:25:04;2.07;;;1.10;;
18716;SDS011;9487;50.892;6.906;2023-03-23T11:27:33;1.70;;;1.20;;
18716;SDS011;9487;50.892;6.906;2023-03-23T11:30:01;2.17;;;1.10;;
18716;SDS011;9487;50.892;6.906;2023-03-23T11:32:36;2.60;;;1.40;;
18716;SDS011;9487;50.892;6.906;2023-03-23T11:35:04;1.50;;;0.87;;
18716;SDS011;9487;50.892;6.906;2023-03-23T11:37:34;1.57;;;0.97;;
18716;SDS011;9487;50.892;6.906;2023-03-23T11:40:14;1.47;;;0.90;;
18716;SDS011;9487;50.892;6.906;2023-03-23T11:42:45;2.53;;;0.97;;
18716;SDS011;9487;50.892;6.906;2023-03-23T11:45:16;2.40;;;1.10;;
18716;SDS011;9487;50.892;6.906;2023-03-23T11:47:49;1.07;;;0.70;;
18716;SDS011;9487;50.892;6.906;2023-03-23T11:50:24;6.00;;;0.83;;
18716;SDS011;9487;50.892;6.906;2023-03-23T11:52:55;1.40;;;0.80;;
18716;SDS011;9487;50.892;6.906;2023-03-23T11:55:30;3.43;;;0.90;;
18716;SDS011;9487;50.892;6.906;2023-03-23T11:58:16;3.00;;;1.37;;
18716;SDS011;9487;50.892;6.906;2023-03-23T12:00:45;0.93;;;0.70;;
18716;SDS011;9487;50.892;6.906;2023-03-23T12:03:26;1.23;;;0.60;;
18716;SDS011;9487;50.892;6.906;2023-03-23T12:06:06;2.30;;;0.80;;
18716;SDS011;9487;50.892;6.906;2023-03-23T12:08:42;1.00;;;0.70;;
18716;SDS011;9487;50.892;6.906;2023-03-23T12:11:22;1.00;;;0.80;;
18716;SDS011;9487;50.892;6.906;2023-03-23T12:14:00;1.27;;;0.83;;
18716;SDS011;9487;50.892;6.906;2023-03-23T12:16:40;2.03;;;0.77;;
18716;SDS011;9487;50.892;6.906;2023-03-23T12:19:17;1.70;;;1.10;;
18716;SDS011;9487;50.892;6.906;2023-03-23T12:21:52;2.07;;;0.90;;
18716;SDS011;9487;50.892;6.906;2023-03-23T12:24:28;1.17;;;0.90;;
18716;SDS011;9487;50.892;6.906;2023-03-23T12:27:06;3.67;;;1.40;;
18716;SDS011;9487;50.892;6.906;2023-03-23T12:29:48;3.87;;;1.10;;
18716;SDS011;9487;50.892;6.906;2023-03-23T12:35:25;2.90;;;1.00;;
18716;SDS011;9487;50.892;6.906;2023-03-23T12:38:10;4.33;;;1.27;;
18716;SDS011;9487;50.892;6.906;2023-03-23T12:40:51;2.80;;;1.20;;
18716;SDS011;9487;50.892;6.906;2023-03-23T12:43:28;4.10;;;1.50;;
18716;SDS011;9487;50.892;6.906;2023-03-23T12:46:06;2.87;;;1.60;;
18716;SDS011;9487;50.892;6.906;2023-03-23T12:48:43;5.07;;;1.93;;
18716;SDS011;9487;50.892;6.906;2023-03-23T12:51:18;3.63;;;1.47;;
18716;SDS011;9487;50.892;6.906;2023-03-23T12:53:53;1.33;;;1.20;;
18716;SDS011;9487;50.892;6.906;2023-03-23T12:56:26;2.63;;;1.37;;
18716;SDS011;9487;50.892;6.906;2023-03-23T12:59:10;3.57;;;1.87;;
18716;SDS011;9487;50.892;6.906;2023-03-23T13:01:42;2.73;;;1.30;;
18716;SDS011;9487;50.892;6.906;2023-03-23T13:04:13;2.00;;;1.10;;
18716;SDS011;9487;50.892;6.906;2023-03-23T13:06:44;3.27;;;1.40;;
18716;SDS011;9487;50.892;6.906;2023-03-23T13:09:14;4.10;;;1.33;;
18716;SDS011;9487;50.892;6.906;2023-03-23T13:11:45;2.80;;;1.20;;
18716;SDS011;9487;50.892;6.906;2023-03-23T13:14:25;2.27;;;1.17;;
18716;SDS011;9487;50.892;6.906;2023-03-23T13:17:06;3.60;;;1.30;;
18716;SDS011;9487;50.892;6.906;2023-03-23T13:19:59;3.37;;;1.30;;
18716;SDS011;9487;50.892;6.906;2023-03-23T13:22:44;2.60;;;1.40;;
18716;SDS011;9487;50.892;6.906;2023-03-23T13:25:18;2.30;;;1.30;;
18716;SDS011;9487;50.892;6.906;2023-03-23T13:27:57;2.43;;;1.37;;
18716;SDS011;9487;50.892;6.906;2023-03-23T13:30:26;2.73;;;1.37;;
18716;SDS011;9487;50.892;6.906;2023-03-23T13:33:02;3.27;;;1.20;;
18716;SDS011;9487;50.892;6.906;2023-03-23T13:35:36;3.80;;;1.37;;
18716;SDS011;9487;50.892;6.906;2023-03-23T13:38:11;2.63;;;1.43;;
18716;SDS011;9487;50.892;6.906;2023-03-23T13:40:43;3.20;;;1.43;;
18716;SDS011;9487;50.892;6.906;2023-03-23T13:43:11;2.47;;;1.40;;
18716;SDS011;9487;50.892;6.906;2023-03-23T13:45:43;4.63;;;1.90;;
18716;SDS011;9487;50.892;6.906;2023-03-23T13:48:21;3.03;;;1.50;;
18716;SDS011;9487;50.892;6.906;2023-03-23T13:50:51;3.73;;;1.50;;
18716;SDS011;9487;50.892;6.906;2023-03-23T13:53:22;3.57;;;1.40;;
18716;SDS011;9487;50.892;6.906;2023-03-23T13:56:03;2.50;;;1.20;;
18716;SDS011;9487;50.892;6.906;2023-03-23T13:58:43;2.93;;;1.57;;
18716;SDS011;9487;50.892;6.906;2023-03-23T14:01:13;2.73;;;1.60;;
18716;SDS011;9487;50.892;6.906;2023-03-23T14:03:44;5.17;;;1.80;;
18716;SDS011;9487;50.892;6.906;2023-03-23T14:06:15;4.53;;;1.80;;
18716;SDS011;9487;50.892;6.906;2023-03-23T14:08:45;5.73;;;2.13;;
18716;SDS011;9487;50.892;6.906;2023-03-23T14:11:16;3.40;;;1.63;;
18716;SDS011;9487;50.892;6.906;2023-03-23T14:13:50;4.43;;;1.57;;
18716;SDS011;9487;50.892;6.906;2023-03-23T14:16:25;3.87;;;1.57;;
18716;SDS011;9487;50.892;6.906;2023-03-23T14:18:59;2.23;;;1.30;;
18716;SDS011;9487;50.892;6.906;2023-03-23T14:21:32;2.53;;;1.50;;
18716;SDS011;9487;50.892;6.906;2023-03-23T14:24:04;4.07;;;1.70;;
18716;SDS011;9487;50.892;6.906;2023-03-23T14:26:35;3.40;;;1.40;;
18716;SDS011;9487;50.892;6.906;2023-03-23T14:29:03;2.53;;;1.57;;
18716;SDS011;9487;50.892;6.906;2023-03-23T14:31:31;4.47;;;1.60;;
18716;SDS011;9487;50.892;6.906;2023-03-23T14:34:03;5.67;;;2.27;;
18716;SDS011;9487;50.892;6.906;2023-03-23T14:36:37;6.13;;;1.73;;
18716;SDS011;9487;50.892;6.906;2023-03-23T14:39:07;3.53;;;1.70;;
18716;SDS011;9487;50.892;6.906;2023-03-23T14:41:42;4.33;;;1.80;;
18716;SDS011;9487;50.892;6.906;2023-03-23T14:44:12;3.27;;;1.87;;
18716;SDS011;9487;50.892;6.906;2023-03-23T14:46:41;3.97;;;1.53;;
18716;SDS011;9487;50.892;6.906;2023-03-23T14:49:11;2.83;;;1.60;;
18716;SDS011;9487;50.892;6.906;2023-03-23T14:51:46;6.00;;;1.63;;
18716;SDS011;9487;50.892;6.906;2023-03-23T14:54:13;4.23;;;1.70;;
18716;SDS011;9487;50.892;6.906;2023-03-23T14:56:41;3.93;;;1.53;;
18716;SDS011;9487;50.892;6.906;2023-03-23T14:59:10;3.30;;;1.57;;
18716;SDS011;9487;50.892;6.906;2023-03-23T15:01:37;2.70;;;1.63;;
18716;SDS011;9487;50.892;6.906;2023-03-23T15:04:09;3.87;;;1.57;;
18716;SDS011;9487;50.892;6.906;2023-03-23T15:06:41;2.83;;;1.97;;
18716;SDS011;9487;50.892;6.906;2023-03-23T15:09:15;3.33;;;1.53;;
18716;SDS011;9487;50.892;6.906;2023-03-23T15:11:50;3.50;;;1.60;;
18716;SDS011;9487;50.892;6.906;2023-03-23T15:14:20;4.30;;;1.50;;
18716;SDS011;9487;50.892;6.906;2023-03-23T15:16:49;3.17;;;1.70;;
18716;SDS011;9487;50.892;6.906;2023-03-23T15:19:20;1.80;;;1.67;;
18716;SDS011;9487;50.892;6.906;2023-03-23T15:21:50;2.57;;;1.43;;
18716;SDS011;9487;50.892;6.906;2023-03-23T15:24:20;2.97;;;1.70;;
18716;SDS011;9487;50.892;6.906;2023-03-23T15:27:14;3.20;;;1.93;;
18716;SDS011;9487;50.892;6.906;2023-03-23T15:29:46;2.57;;;1.60;;
18716;SDS011;9487;50.892;6.906;2023-03-23T15:32:19;4.43;;;2.00;;